Weather at Heliport Castellana grotte

Public forecast

Using degrees Celsius for public forecast. Weather courtesy of forecast.io.

Closest aviation weather report (METAR) to Heliport Castellana grotte

Closest report is Gioia Del Colle Air Base, 12.0 nm (22.2 km) SW. Retrieved 2021/01/20 07:55 UTC (57 minutes ago):

LIBV 200755Z 15006KT 9999 FEW040 07/04 Q1025 RMK FEW VIS MIN 9999 WIND THR32 15008KT WIND THR14 18003KT BLU

Closest aviation forecast (TAF) to Heliport Castellana grotte

Forecast is more than 12 hours old.

Closest forecast is Gioia Del Colle Air Base, 12.0 nm (22.2 km) SW. Retrieved 2020/04/18 15:27 UTC (9 months ago):

TAF TAF COR LIBV 181705Z 1815/1903 18008KT CAVOK